sensor_id;sensor_type;location;lat;lon;timestamp;temperature;humidity
40756;DHT22;26461;45.630;9.418;2024-02-15T00:03:08;10.40;66.90
40756;DHT22;26461;45.630;9.418;2024-02-15T00:06:13;10.40;67.00
40756;DHT22;26461;45.630;9.418;2024-02-15T00:09:18;10.30;67.20
40756;DHT22;26461;45.630;9.418;2024-02-15T00:12:23;10.30;67.30
40756;DHT22;26461;45.630;9.418;2024-02-15T00:15:28;10.20;67.30
40756;DHT22;26461;45.630;9.418;2024-02-15T00:18:39;10.20;67.40
40756;DHT22;26461;45.630;9.418;2024-02-15T00:21:45;10.10;67.70
40756;DHT22;26461;45.630;9.418;2024-02-15T00:24:50;10.10;67.90
40756;DHT22;26461;45.630;9.418;2024-02-15T00:28:00;10.00;68.00
40756;DHT22;26461;45.630;9.418;2024-02-15T00:31:12;10.00;67.90
40756;DHT22;26461;45.630;9.418;2024-02-15T00:34:22;10.00;67.90
40756;DHT22;26461;45.630;9.418;2024-02-15T00:37:32;9.90;67.90
40756;DHT22;26461;45.630;9.418;2024-02-15T00:40:38;9.90;68.10
40756;DHT22;26461;45.630;9.418;2024-02-15T00:43:43;9.80;68.30
40756;DHT22;26461;45.630;9.418;2024-02-15T00:46:53;9.70;68.50
40756;DHT22;26461;45.630;9.418;2024-02-15T00:50:03;9.70;68.50
40756;DHT22;26461;45.630;9.418;2024-02-15T00:53:09;9.70;68.40
40756;DHT22;26461;45.630;9.418;2024-02-15T00:56:19;9.70;68.40
40756;DHT22;26461;45.630;9.418;2024-02-15T00:59:27;9.70;68.70
40756;DHT22;26461;45.630;9.418;2024-02-15T01:02:33;9.60;68.90
40756;DHT22;26461;45.630;9.418;2024-02-15T01:05:38;9.60;68.70
40756;DHT22;26461;45.630;9.418;2024-02-15T01:08:44;9.60;68.50
40756;DHT22;26461;45.630;9.418;2024-02-15T01:11:57;9.60;68.30
40756;DHT22;26461;45.630;9.418;2024-02-15T01:15:03;9.70;68.20
40756;DHT22;26461;45.630;9.418;2024-02-15T01:18:09;9.60;67.90
40756;DHT22;26461;45.630;9.418;2024-02-15T01:21:14;9.60;67.70
40756;DHT22;26461;45.630;9.418;2024-02-15T01:24:19;9.60;67.40
40756;DHT22;26461;45.630;9.418;2024-02-15T01:27:29;9.60;67.40
40756;DHT22;26461;45.630;9.418;2024-02-15T01:30:41;9.60;67.00
40756;DHT22;26461;45.630;9.418;2024-02-15T01:33:48;9.60;67.00
40756;DHT22;26461;45.630;9.418;2024-02-15T01:36:53;9.60;67.20
40756;DHT22;26461;45.630;9.418;2024-02-15T01:40:05;9.50;67.20
40756;DHT22;26461;45.630;9.418;2024-02-15T01:43:12;9.50;67.30
40756;DHT22;26461;45.630;9.418;2024-02-15T01:46:17;9.50;67.00
40756;DHT22;26461;45.630;9.418;2024-02-15T01:49:28;9.40;66.60
40756;DHT22;26461;45.630;9.418;2024-02-15T01:52:39;9.40;66.60
40756;DHT22;26461;45.630;9.418;2024-02-15T01:55:46;9.40;66.50
40756;DHT22;26461;45.630;9.418;2024-02-15T01:58:52;9.40;66.30
40756;DHT22;26461;45.630;9.418;2024-02-15T02:01:58;9.40;66.20
40756;DHT22;26461;45.630;9.418;2024-02-15T02:05:03;9.30;66.20
40756;DHT22;26461;45.630;9.418;2024-02-15T02:08:09;9.30;66.60
40756;DHT22;26461;45.630;9.418;2024-02-15T02:11:22;9.30;66.50
40756;DHT22;26461;45.630;9.418;2024-02-15T02:14:28;9.30;66.20
40756;DHT22;26461;45.630;9.418;2024-02-15T02:17:33;9.30;66.00
40756;DHT22;26461;45.630;9.418;2024-02-15T02:20:40;9.20;65.80
40756;DHT22;26461;45.630;9.418;2024-02-15T02:24:03;9.30;65.60
40756;DHT22;26461;45.630;9.418;2024-02-15T02:27:13;9.30;65.40
40756;DHT22;26461;45.630;9.418;2024-02-15T02:30:25;9.30;65.00
40756;DHT22;26461;45.630;9.418;2024-02-15T02:33:34;9.30;64.60
40756;DHT22;26461;45.630;9.418;2024-02-15T02:36:43;9.30;64.30
40756;DHT22;26461;45.630;9.418;2024-02-15T02:39:48;9.30;64.10
40756;DHT22;26461;45.630;9.418;2024-02-15T02:42:59;9.30;64.10
40756;DHT22;26461;45.630;9.418;2024-02-15T02:46:10;9.40;64.20
40756;DHT22;26461;45.630;9.418;2024-02-15T02:49:16;9.40;64.20
40756;DHT22;26461;45.630;9.418;2024-02-15T02:52:21;9.30;64.30
40756;DHT22;26461;45.630;9.418;2024-02-15T02:55:26;9.30;64.40
40756;DHT22;26461;45.630;9.418;2024-02-15T02:58:35;9.30;64.50
40756;DHT22;26461;45.630;9.418;2024-02-15T03:01:46;9.30;64.60
40756;DHT22;26461;45.630;9.418;2024-02-15T03:04:51;9.30;64.80
40756;DHT22;26461;45.630;9.418;2024-02-15T03:07:58;9.20;64.80
40756;DHT22;26461;45.630;9.418;2024-02-15T03:11:03;9.20;64.60
40756;DHT22;26461;45.630;9.418;2024-02-15T03:14:13;9.20;64.60
40756;DHT22;26461;45.630;9.418;2024-02-15T03:17:19;9.20;64.90
40756;DHT22;26461;45.630;9.418;2024-02-15T03:20:25;9.10;64.60
40756;DHT22;26461;45.630;9.418;2024-02-15T03:23:30;9.10;64.70
40756;DHT22;26461;45.630;9.418;2024-02-15T03:26:37;9.10;64.90
40756;DHT22;26461;45.630;9.418;2024-02-15T03:29:43;9.10;65.10
40756;DHT22;26461;45.630;9.418;2024-02-15T03:32:54;9.00;64.90
40756;DHT22;26461;45.630;9.418;2024-02-15T03:35:59;9.00;64.90
40756;DHT22;26461;45.630;9.418;2024-02-15T03:39:11;9.00;65.10
40756;DHT22;26461;45.630;9.418;2024-02-15T03:42:21;8.90;65.20
40756;DHT22;26461;45.630;9.418;2024-02-15T03:45:31;8.90;65.10
40756;DHT22;26461;45.630;9.418;2024-02-15T03:48:37;8.90;65.20
40756;DHT22;26461;45.630;9.418;2024-02-15T03:51:48;8.90;65.50
40756;DHT22;26461;45.630;9.418;2024-02-15T03:54:54;8.90;65.30
40756;DHT22;26461;45.630;9.418;2024-02-15T03:57:59;8.90;65.20
40756;DHT22;26461;45.630;9.418;2024-02-15T04:01:04;8.90;65.30
40756;DHT22;26461;45.630;9.418;2024-02-15T04:04:11;8.80;65.60
40756;DHT22;26461;45.630;9.418;2024-02-15T04:07:18;8.80;65.60
40756;DHT22;26461;45.630;9.418;2024-02-15T04:10:28;8.80;65.70
40756;DHT22;26461;45.630;9.418;2024-02-15T04:13:39;8.80;65.80
40756;DHT22;26461;45.630;9.418;2024-02-15T04:16:45;8.70;65.90
40756;DHT22;26461;45.630;9.418;2024-02-15T04:19:55;8.70;66.30
40756;DHT22;26461;45.630;9.418;2024-02-15T04:23:07;8.60;66.50
40756;DHT22;26461;45.630;9.418;2024-02-15T04:26:18;8.50;66.80
40756;DHT22;26461;45.630;9.418;2024-02-15T04:29:29;8.50;67.20
40756;DHT22;26461;45.630;9.418;2024-02-15T04:32:35;8.50;66.90
40756;DHT22;26461;45.630;9.418;2024-02-15T04:35:41;8.40;66.60
40756;DHT22;26461;45.630;9.418;2024-02-15T04:38:47;8.40;66.80
40756;DHT22;26461;45.630;9.418;2024-02-15T04:41:54;8.40;67.00
40756;DHT22;26461;45.630;9.418;2024-02-15T04:45:06;8.40;67.40
40756;DHT22;26461;45.630;9.418;2024-02-15T04:48:32;8.40;67.50
40756;DHT22;26461;45.630;9.418;2024-02-15T04:51:45;8.30;67.50
40756;DHT22;26461;45.630;9.418;2024-02-15T04:54:51;8.30;67.60
40756;DHT22;26461;45.630;9.418;2024-02-15T04:57:59;8.20;67.80
40756;DHT22;26461;45.630;9.418;2024-02-15T05:01:05;8.20;67.80
40756;DHT22;26461;45.630;9.418;2024-02-15T05:04:15;8.20;67.90
40756;DHT22;26461;45.630;9.418;2024-02-15T05:07:20;8.20;67.60
40756;DHT22;26461;45.630;9.418;2024-02-15T05:10:28;8.20;67.20
40756;DHT22;26461;45.630;9.418;2024-02-15T05:13:33;8.20;67.60
40756;DHT22;26461;45.630;9.418;2024-02-15T05:16:38;8.20;67.40
40756;DHT22;26461;45.630;9.418;2024-02-15T05:19:47;8.20;67.60
40756;DHT22;26461;45.630;9.418;2024-02-15T05:22:52;8.00;67.70
40756;DHT22;26461;45.630;9.418;2024-02-15T05:25:58;8.10;67.40
40756;DHT22;26461;45.630;9.418;2024-02-15T05:29:04;8.00;67.30
40756;DHT22;26461;45.630;9.418;2024-02-15T05:32:10;8.00;67.50
40756;DHT22;26461;45.630;9.418;2024-02-15T05:35:15;8.00;67.40
40756;DHT22;26461;45.630;9.418;2024-02-15T05:38:29;8.00;67.30
40756;DHT22;26461;45.630;9.418;2024-02-15T05:41:34;8.10;67.30
40756;DHT22;26461;45.630;9.418;2024-02-15T05:44:39;8.10;67.20
40756;DHT22;26461;45.630;9.418;2024-02-15T05:47:45;8.00;67.10
40756;DHT22;26461;45.630;9.418;2024-02-15T05:50:51;8.10;67.10
40756;DHT22;26461;45.630;9.418;2024-02-15T05:54:01;8.20;67.10
40756;DHT22;26461;45.630;9.418;2024-02-15T05:57:07;8.10;67.10
40756;DHT22;26461;45.630;9.418;2024-02-15T06:00:13;8.10;67.10
40756;DHT22;26461;45.630;9.418;2024-02-15T06:03:20;8.20;67.30
40756;DHT22;26461;45.630;9.418;2024-02-15T06:06:31;8.20;67.20
40756;DHT22;26461;45.630;9.418;2024-02-15T06:09:37;8.20;67.20
40756;DHT22;26461;45.630;9.418;2024-02-15T06:12:45;8.20;67.30
40756;DHT22;26461;45.630;9.418;2024-02-15T06:15:55;8.20;67.30
40756;DHT22;26461;45.630;9.418;2024-02-15T06:19:06;8.20;67.20
40756;DHT22;26461;45.630;9.418;2024-02-15T06:22:11;8.20;67.10
40756;DHT22;26461;45.630;9.418;2024-02-15T06:25:17;8.20;67.20
40756;DHT22;26461;45.630;9.418;2024-02-15T06:28:30;8.20;67.90
40756;DHT22;26461;45.630;9.418;2024-02-15T06:32:00;8.30;68.10
40756;DHT22;26461;45.630;9.418;2024-02-15T06:35:28;8.30;68.10
40756;DHT22;26461;45.630;9.418;2024-02-15T06:38:53;8.30;68.10
40756;DHT22;26461;45.630;9.418;2024-02-15T06:42:21;8.20;68.10
40756;DHT22;26461;45.630;9.418;2024-02-15T06:45:32;8.20;68.20
40756;DHT22;26461;45.630;9.418;2024-02-15T06:48:45;8.20;68.00
40756;DHT22;26461;45.630;9.418;2024-02-15T06:51:56;8.20;67.90
40756;DHT22;26461;45.630;9.418;2024-02-15T06:55:07;8.20;67.80
40756;DHT22;26461;45.630;9.418;2024-02-15T06:58:18;8.20;67.60
40756;DHT22;26461;45.630;9.418;2024-02-15T07:01:28;8.20;67.60
40756;DHT22;26461;45.630;9.418;2024-02-15T07:04:33;8.20;67.40
40756;DHT22;26461;45.630;9.418;2024-02-15T07:07:38;8.20;67.30
40756;DHT22;26461;45.630;9.418;2024-02-15T07:10:44;8.20;67.90
40756;DHT22;26461;45.630;9.418;2024-02-15T07:13:49;8.20;67.80
40756;DHT22;26461;45.630;9.418;2024-02-15T07:17:03;8.30;67.80
40756;DHT22;26461;45.630;9.418;2024-02-15T07:20:12;8.20;67.90
40756;DHT22;26461;45.630;9.418;2024-02-15T07:23:22;8.20;68.20
40756;DHT22;26461;45.630;9.418;2024-02-15T07:26:28;8.20;68.40
40756;DHT22;26461;45.630;9.418;2024-02-15T07:29:33;8.20;68.80
40756;DHT22;26461;45.630;9.418;2024-02-15T07:32:44;8.30;69.10
40756;DHT22;26461;45.630;9.418;2024-02-15T07:35:51;8.30;69.60
40756;DHT22;26461;45.630;9.418;2024-02-15T07:39:00;8.30;69.50
40756;DHT22;26461;45.630;9.418;2024-02-15T07:42:06;8.30;69.30
40756;DHT22;26461;45.630;9.418;2024-02-15T07:45:13;8.30;69.10
40756;DHT22;26461;45.630;9.418;2024-02-15T07:48:19;8.40;68.70
40756;DHT22;26461;45.630;9.418;2024-02-15T07:51:24;8.40;68.90
40756;DHT22;26461;45.630;9.418;2024-02-15T07:54:34;8.40;68.90
40756;DHT22;26461;45.630;9.418;2024-02-15T07:57:40;8.50;68.80
40756;DHT22;26461;45.630;9.418;2024-02-15T08:00:46;8.50;68.70
40756;DHT22;26461;45.630;9.418;2024-02-15T08:03:56;8.50;68.70
40756;DHT22;26461;45.630;9.418;2024-02-15T08:07:02;8.60;68.90
40756;DHT22;26461;45.630;9.418;2024-02-15T08:10:12;8.70;69.00
40756;DHT22;26461;45.630;9.418;2024-02-15T08:13:23;8.80;69.00
40756;DHT22;26461;45.630;9.418;2024-02-15T08:16:33;8.90;69.00
40756;DHT22;26461;45.630;9.418;2024-02-15T08:19:40;8.90;69.10
40756;DHT22;26461;45.630;9.418;2024-02-15T08:22:51;9.00;70.30
40756;DHT22;26461;45.630;9.418;2024-02-15T08:26:02;9.10;71.50
40756;DHT22;26461;45.630;9.418;2024-02-15T08:29:08;9.20;72.20
40756;DHT22;26461;45.630;9.418;2024-02-15T08:32:23;9.30;72.70
40756;DHT22;26461;45.630;9.418;2024-02-15T08:35:34;9.30;72.30
40756;DHT22;26461;45.630;9.418;2024-02-15T08:38:44;9.40;72.60
40756;DHT22;26461;45.630;9.418;2024-02-15T08:41:50;9.50;73.30
40756;DHT22;26461;45.630;9.418;2024-02-15T08:45:04;9.50;73.50
40756;DHT22;26461;45.630;9.418;2024-02-15T08:48:11;9.60;73.30
40756;DHT22;26461;45.630;9.418;2024-02-15T08:51:21;9.60;72.50
40756;DHT22;26461;45.630;9.418;2024-02-15T08:54:27;9.60;71.60
40756;DHT22;26461;45.630;9.418;2024-02-15T08:57:38;9.70;70.00
40756;DHT22;26461;45.630;9.418;2024-02-15T09:00:45;9.60;69.50
40756;DHT22;26461;45.630;9.418;2024-02-15T09:03:51;9.70;69.40
40756;DHT22;26461;45.630;9.418;2024-02-15T09:06:56;9.70;69.10
40756;DHT22;26461;45.630;9.418;2024-02-15T09:10:02;9.80;68.90
40756;DHT22;26461;45.630;9.418;2024-02-15T09:13:08;9.80;68.70
40756;DHT22;26461;45.630;9.418;2024-02-15T09:16:14;9.80;68.60
40756;DHT22;26461;45.630;9.418;2024-02-15T09:19:19;9.80;68.40
40756;DHT22;26461;45.630;9.418;2024-02-15T09:22:24;9.90;68.50
40756;DHT22;26461;45.630;9.418;2024-02-15T09:25:34;9.90;68.50
40756;DHT22;26461;45.630;9.418;2024-02-15T09:28:41;9.90;68.30
40756;DHT22;26461;45.630;9.418;2024-02-15T09:31:49;10.00;68.20
40756;DHT22;26461;45.630;9.418;2024-02-15T09:35:00;10.00;67.90
40756;DHT22;26461;45.630;9.418;2024-02-15T09:38:05;10.10;67.80
40756;DHT22;26461;45.630;9.418;2024-02-15T09:41:11;10.10;67.80
40756;DHT22;26461;45.630;9.418;2024-02-15T09:44:16;10.20;67.80
40756;DHT22;26461;45.630;9.418;2024-02-15T09:47:34;10.20;67.90
40756;DHT22;26461;45.630;9.418;2024-02-15T09:50:42;10.30;68.00
40756;DHT22;26461;45.630;9.418;2024-02-15T09:53:48;10.40;67.90
40756;DHT22;26461;45.630;9.418;2024-02-15T09:56:55;10.40;67.90
40756;DHT22;26461;45.630;9.418;2024-02-15T10:00:02;10.50;68.00
40756;DHT22;26461;45.630;9.418;2024-02-15T10:03:18;10.50;68.00
40756;DHT22;26461;45.630;9.418;2024-02-15T10:06:23;10.60;67.90
40756;DHT22;26461;45.630;9.418;2024-02-15T10:09:30;10.60;67.90
40756;DHT22;26461;45.630;9.418;2024-02-15T10:12:38;10.70;67.90
40756;DHT22;26461;45.630;9.418;2024-02-15T10:15:44;10.70;68.00
40756;DHT22;26461;45.630;9.418;2024-02-15T10:18:50;10.80;67.90
40756;DHT22;26461;45.630;9.418;2024-02-15T10:22:09;10.80;67.70
40756;DHT22;26461;45.630;9.418;2024-02-15T10:25:15;10.80;67.60
40756;DHT22;26461;45.630;9.418;2024-02-15T10:28:21;10.90;67.40
40756;DHT22;26461;45.630;9.418;2024-02-15T10:31:28;10.90;67.50
40756;DHT22;26461;45.630;9.418;2024-02-15T10:34:44;11.00;67.60
40756;DHT22;26461;45.630;9.418;2024-02-15T10:38:05;11.00;67.50
40756;DHT22;26461;45.630;9.418;2024-02-15T10:41:13;11.10;67.10
40756;DHT22;26461;45.630;9.418;2024-02-15T10:44:24;11.10;66.80
40756;DHT22;26461;45.630;9.418;2024-02-15T10:47:32;11.10;66.40
40756;DHT22;26461;45.630;9.418;2024-02-15T10:50:41;11.10;66.30
40756;DHT22;26461;45.630;9.418;2024-02-15T10:53:56;11.20;66.30
40756;DHT22;26461;45.630;9.418;2024-02-15T10:57:09;11.20;66.30
40756;DHT22;26461;45.630;9.418;2024-02-15T11:00:21;11.20;66.50
40756;DHT22;26461;45.630;9.418;2024-02-15T11:03:35;11.30;66.40
40756;DHT22;26461;45.630;9.418;2024-02-15T11:06:46;11.30;66.10
40756;DHT22;26461;45.630;9.418;2024-02-15T11:09:54;11.30;66.10
40756;DHT22;26461;45.630;9.418;2024-02-15T11:13:03;11.30;66.00
40756;DHT22;26461;45.630;9.418;2024-02-15T11:16:09;11.30;65.80
40756;DHT22;26461;45.630;9.418;2024-02-15T11:19:41;11.30;65.70
40756;DHT22;26461;45.630;9.418;2024-02-15T11:22:58;11.30;65.50
40756;DHT22;26461;45.630;9.418;2024-02-15T11:29:56;11.40;65.80
40756;DHT22;26461;45.630;9.418;2024-02-15T11:33:33;11.40;66.60
40756;DHT22;26461;45.630;9.418;2024-02-15T11:36:45;11.40;65.90
40756;DHT22;26461;45.630;9.418;2024-02-15T11:39:59;11.40;65.90
40756;DHT22;26461;45.630;9.418;2024-02-15T11:43:10;11.50;66.00
40756;DHT22;26461;45.630;9.418;2024-02-15T11:46:17;11.50;66.10
40756;DHT22;26461;45.630;9.418;2024-02-15T11:49:23;11.60;66.00
40756;DHT22;26461;45.630;9.418;2024-02-15T11:52:29;11.60;66.70
40756;DHT22;26461;45.630;9.418;2024-02-15T11:55:40;11.60;66.50
40756;DHT22;26461;45.630;9.418;2024-02-15T11:59:04;11.70;66.20
40756;DHT22;26461;45.630;9.418;2024-02-15T12:02:11;11.70;66.00
40756;DHT22;26461;45.630;9.418;2024-02-15T12:05:40;11.70;66.10
40756;DHT22;26461;45.630;9.418;2024-02-15T12:09:04;11.70;67.10
40756;DHT22;26461;45.630;9.418;2024-02-15T12:12:28;11.80;67.60
40756;DHT22;26461;45.630;9.418;2024-02-15T12:16:01;11.80;67.60
40756;DHT22;26461;45.630;9.418;2024-02-15T12:19:25;11.80;67.40
40756;DHT22;26461;45.630;9.418;2024-02-15T12:22:33;11.80;68.30
40756;DHT22;26461;45.630;9.418;2024-02-15T12:25:40;11.90;67.30
40756;DHT22;26461;45.630;9.418;2024-02-15T12:28:53;11.90;67.20
40756;DHT22;26461;45.630;9.418;2024-02-15T12:32:07;11.90;66.90
40756;DHT22;26461;45.630;9.418;2024-02-15T12:35:14;11.90;66.80
40756;DHT22;26461;45.630;9.418;2024-02-15T12:38:27;11.90;66.90
40756;DHT22;26461;45.630;9.418;2024-02-15T12:41:32;11.80;66.70
40756;DHT22;26461;45.630;9.418;2024-02-15T12:44:45;11.90;66.80
40756;DHT22;26461;45.630;9.418;2024-02-15T12:47:56;11.80;66.70
40756;DHT22;26461;45.630;9.418;2024-02-15T12:51:16;11.80;66.30
40756;DHT22;26461;45.630;9.418;2024-02-15T12:54:27;11.80;66.10
40756;DHT22;26461;45.630;9.418;2024-02-15T12:57:32;11.80;66.10
40756;DHT22;26461;45.630;9.418;2024-02-15T13:00:37;11.80;66.10
40756;DHT22;26461;45.630;9.418;2024-02-15T13:03:49;11.80;65.70
40756;DHT22;26461;45.630;9.418;2024-02-15T13:07:01;11.80;65.70
40756;DHT22;26461;45.630;9.418;2024-02-15T13:10:07;11.90;65.70
40756;DHT22;26461;45.630;9.418;2024-02-15T13:13:13;11.80;65.50
40756;DHT22;26461;45.630;9.418;2024-02-15T13:16:19;11.90;65.50
40756;DHT22;26461;45.630;9.418;2024-02-15T13:19:25;11.90;65.60
40756;DHT22;26461;45.630;9.418;2024-02-15T13:22:37;11.90;65.60
40756;DHT22;26461;45.630;9.418;2024-02-15T13:25:44;11.90;65.60
40756;DHT22;26461;45.630;9.418;2024-02-15T13:28:55;11.90;65.70
40756;DHT22;26461;45.630;9.418;2024-02-15T13:32:00;12.00;66.00
40756;DHT22;26461;45.630;9.418;2024-02-15T13:35:07;12.00;65.90
40756;DHT22;26461;45.630;9.418;2024-02-15T13:38:27;12.00;65.90
40756;DHT22;26461;45.630;9.418;2024-02-15T13:41:33;12.00;66.50
40756;DHT22;26461;45.630;9.418;2024-02-15T13:44:38;12.00;65.70
40756;DHT22;26461;45.630;9.418;2024-02-15T13:47:45;12.00;65.60
40756;DHT22;26461;45.630;9.418;2024-02-15T13:50:52;12.00;65.80
40756;DHT22;26461;45.630;9.418;2024-02-15T13:53:58;12.10;65.90
40756;DHT22;26461;45.630;9.418;2024-02-15T13:57:03;12.10;65.80
40756;DHT22;26461;45.630;9.418;2024-02-15T14:00:12;12.10;65.80
40756;DHT22;26461;45.630;9.418;2024-02-15T14:03:23;12.20;66.80
40756;DHT22;26461;45.630;9.418;2024-02-15T14:06:35;12.20;65.80
40756;DHT22;26461;45.630;9.418;2024-02-15T14:09:41;12.30;65.50
40756;DHT22;26461;45.630;9.418;2024-02-15T14:12:51;12.40;65.80
40756;DHT22;26461;45.630;9.418;2024-02-15T14:16:02;12.40;65.70
40756;DHT22;26461;45.630;9.418;2024-02-15T14:19:08;12.50;65.50
40756;DHT22;26461;45.630;9.418;2024-02-15T14:22:14;12.50;64.90
40756;DHT22;26461;45.630;9.418;2024-02-15T14:25:26;12.60;64.80
40756;DHT22;26461;45.630;9.418;2024-02-15T14:28:33;12.60;64.70
40756;DHT22;26461;45.630;9.418;2024-02-15T14:31:44;12.70;64.80
40756;DHT22;26461;45.630;9.418;2024-02-15T14:35:13;12.80;64.90
40756;DHT22;26461;45.630;9.418;2024-02-15T14:38:24;12.80;64.80
40756;DHT22;26461;45.630;9.418;2024-02-15T14:41:34;12.90;64.50
40756;DHT22;26461;45.630;9.418;2024-02-15T14:44:40;12.90;64.60
40756;DHT22;26461;45.630;9.418;2024-02-15T14:47:48;13.00;64.20
40756;DHT22;26461;45.630;9.418;2024-02-15T14:50:58;13.00;63.90
40756;DHT22;26461;45.630;9.418;2024-02-15T14:54:09;13.00;63.60
40756;DHT22;26461;45.630;9.418;2024-02-15T14:57:19;13.00;63.30
40756;DHT22;26461;45.630;9.418;2024-02-15T15:00:25;13.00;63.40
40756;DHT22;26461;45.630;9.418;2024-02-15T15:03:36;13.00;63.50
40756;DHT22;26461;45.630;9.418;2024-02-15T15:06:45;12.90;63.60
40756;DHT22;26461;45.630;9.418;2024-02-15T15:10:10;12.90;63.80
40756;DHT22;26461;45.630;9.418;2024-02-15T15:13:39;12.90;64.10
40756;DHT22;26461;45.630;9.418;2024-02-15T15:16:50;12.90;64.40
40756;DHT22;26461;45.630;9.418;2024-02-15T15:19:55;12.90;64.50
40756;DHT22;26461;45.630;9.418;2024-02-15T15:23:07;12.90;64.60
40756;DHT22;26461;45.630;9.418;2024-02-15T15:26:19;12.90;64.80
40756;DHT22;26461;45.630;9.418;2024-02-15T15:29:24;12.90;64.80
40756;DHT22;26461;45.630;9.418;2024-02-15T15:32:30;13.00;64.60
40756;DHT22;26461;45.630;9.418;2024-02-15T15:35:40;13.00;64.50
40756;DHT22;26461;45.630;9.418;2024-02-15T15:38:51;13.00;64.60
40756;DHT22;26461;45.630;9.418;2024-02-15T15:41:57;13.00;64.80
40756;DHT22;26461;45.630;9.418;2024-02-15T15:45:02;13.10;64.60
40756;DHT22;26461;45.630;9.418;2024-02-15T15:48:07;13.10;64.50
40756;DHT22;26461;45.630;9.418;2024-02-15T15:51:12;13.10;64.50
40756;DHT22;26461;45.630;9.418;2024-02-15T15:54:19;13.10;64.50
40756;DHT22;26461;45.630;9.418;2024-02-15T15:57:31;13.10;64.30
40756;DHT22;26461;45.630;9.418;2024-02-15T16:00:42;13.10;64.40
40756;DHT22;26461;45.630;9.418;2024-02-15T16:03:48;13.20;64.50
40756;DHT22;26461;45.630;9.418;2024-02-15T16:06:55;13.10;64.30
40756;DHT22;26461;45.630;9.418;2024-02-15T16:10:07;13.10;63.90
40756;DHT22;26461;45.630;9.418;2024-02-15T16:13:12;13.00;63.70
40756;DHT22;26461;45.630;9.418;2024-02-15T16:16:23;13.00;63.50
40756;DHT22;26461;45.630;9.418;2024-02-15T16:19:29;13.00;63.80
40756;DHT22;26461;45.630;9.418;2024-02-15T16:22:36;12.90;64.10
40756;DHT22;26461;45.630;9.418;2024-02-15T16:25:42;12.90;64.50
40756;DHT22;26461;45.630;9.418;2024-02-15T16:28:48;12.90;64.40
40756;DHT22;26461;45.630;9.418;2024-02-15T16:31:58;12.80;64.30
40756;DHT22;26461;45.630;9.418;2024-02-15T16:35:04;12.80;64.30
40756;DHT22;26461;45.630;9.418;2024-02-15T16:38:19;12.70;64.50
40756;DHT22;26461;45.630;9.418;2024-02-15T16:41:25;12.70;64.80
40756;DHT22;26461;45.630;9.418;2024-02-15T16:44:32;12.60;64.90
40756;DHT22;26461;45.630;9.418;2024-02-15T16:47:38;12.60;65.00
40756;DHT22;26461;45.630;9.418;2024-02-15T16:50:44;12.50;65.30
40756;DHT22;26461;45.630;9.418;2024-02-15T16:53:56;12.50;65.80
40756;DHT22;26461;45.630;9.418;2024-02-15T16:57:02;12.50;66.20
40756;DHT22;26461;45.630;9.418;2024-02-15T17:00:08;12.40;66.70
40756;DHT22;26461;45.630;9.418;2024-02-15T17:03:14;12.40;67.10
40756;DHT22;26461;45.630;9.418;2024-02-15T17:06:21;12.40;67.30
40756;DHT22;26461;45.630;9.418;2024-02-15T17:09:32;12.30;67.60
40756;DHT22;26461;45.630;9.418;2024-02-15T17:12:37;12.30;67.70
40756;DHT22;26461;45.630;9.418;2024-02-15T17:15:48;12.20;68.00
40756;DHT22;26461;45.630;9.418;2024-02-15T17:18:58;12.20;68.20
40756;DHT22;26461;45.630;9.418;2024-02-15T17:22:10;12.20;68.50
40756;DHT22;26461;45.630;9.418;2024-02-15T17:25:20;12.10;68.70
40756;DHT22;26461;45.630;9.418;2024-02-15T17:28:27;12.10;69.10
40756;DHT22;26461;45.630;9.418;2024-02-15T17:31:38;12.00;69.20
40756;DHT22;26461;45.630;9.418;2024-02-15T17:34:55;12.00;69.40
40756;DHT22;26461;45.630;9.418;2024-02-15T17:38:00;12.00;69.60
40756;DHT22;26461;45.630;9.418;2024-02-15T17:41:05;12.00;69.80
40756;DHT22;26461;45.630;9.418;2024-02-15T17:44:15;11.90;69.90
40756;DHT22;26461;45.630;9.418;2024-02-15T17:47:21;11.90;70.10
40756;DHT22;26461;45.630;9.418;2024-02-15T17:50:26;11.90;70.30
40756;DHT22;26461;45.630;9.418;2024-02-15T17:53:32;11.80;70.40
40756;DHT22;26461;45.630;9.418;2024-02-15T17:56:45;11.80;70.60
40756;DHT22;26461;45.630;9.418;2024-02-15T17:59:58;11.80;70.80
40756;DHT22;26461;45.630;9.418;2024-02-15T18:03:04;11.70;71.10
40756;DHT22;26461;45.630;9.418;2024-02-15T18:06:15;11.70;71.40
40756;DHT22;26461;45.630;9.418;2024-02-15T18:09:25;11.70;71.60
40756;DHT22;26461;45.630;9.418;2024-02-15T18:12:33;11.70;71.70
40756;DHT22;26461;45.630;9.418;2024-02-15T18:15:43;11.70;71.90
40756;DHT22;26461;45.630;9.418;2024-02-15T18:18:50;11.60;72.10
40756;DHT22;26461;45.630;9.418;2024-02-15T18:21:56;11.60;72.20
40756;DHT22;26461;45.630;9.418;2024-02-15T18:25:02;11.60;72.40
40756;DHT22;26461;45.630;9.418;2024-02-15T18:28:15;11.60;72.50
40756;DHT22;26461;45.630;9.418;2024-02-15T18:31:22;11.60;72.70
40756;DHT22;26461;45.630;9.418;2024-02-15T18:34:32;11.50;72.80
40756;DHT22;26461;45.630;9.418;2024-02-15T18:37:42;11.50;73.10
40756;DHT22;26461;45.630;9.418;2024-02-15T18:40:48;11.50;74.00
40756;DHT22;26461;45.630;9.418;2024-02-15T18:43:58;11.50;73.20
40756;DHT22;26461;45.630;9.418;2024-02-15T18:47:09;11.50;73.40
40756;DHT22;26461;45.630;9.418;2024-02-15T18:50:14;11.40;73.40
40756;DHT22;26461;45.630;9.418;2024-02-15T18:53:28;11.40;73.30
40756;DHT22;26461;45.630;9.418;2024-02-15T18:56:39;11.40;73.40
40756;DHT22;26461;45.630;9.418;2024-02-15T18:59:49;11.40;73.70
40756;DHT22;26461;45.630;9.418;2024-02-15T19:02:54;11.40;74.00
40756;DHT22;26461;45.630;9.418;2024-02-15T19:05:59;11.40;74.20
40756;DHT22;26461;45.630;9.418;2024-02-15T19:09:06;11.30;74.30
40756;DHT22;26461;45.630;9.418;2024-02-15T19:12:12;11.30;74.30
40756;DHT22;26461;45.630;9.418;2024-02-15T19:15:17;11.30;74.30
40756;DHT22;26461;45.630;9.418;2024-02-15T19:18:27;11.30;74.40
40756;DHT22;26461;45.630;9.418;2024-02-15T19:21:38;11.30;74.40
40756;DHT22;26461;45.630;9.418;2024-02-15T19:24:49;11.30;74.40
40756;DHT22;26461;45.630;9.418;2024-02-15T19:28:00;11.30;74.80
40756;DHT22;26461;45.630;9.418;2024-02-15T19:31:15;11.30;74.90
40756;DHT22;26461;45.630;9.418;2024-02-15T19:34:25;11.30;75.00
40756;DHT22;26461;45.630;9.418;2024-02-15T19:37:37;11.20;75.10
40756;DHT22;26461;45.630;9.418;2024-02-15T19:40:47;11.20;75.20
40756;DHT22;26461;45.630;9.418;2024-02-15T19:43:57;11.20;75.20
40756;DHT22;26461;45.630;9.418;2024-02-15T19:47:03;11.20;75.10
40756;DHT22;26461;45.630;9.418;2024-02-15T19:50:14;11.20;75.40
40756;DHT22;26461;45.630;9.418;2024-02-15T19:53:29;11.20;75.40
40756;DHT22;26461;45.630;9.418;2024-02-15T19:56:40;11.10;75.40
40756;DHT22;26461;45.630;9.418;2024-02-15T19:59:51;11.10;75.40
40756;DHT22;26461;45.630;9.418;2024-02-15T20:02:56;11.20;75.60
40756;DHT22;26461;45.630;9.418;2024-02-15T20:06:02;11.10;75.70
40756;DHT22;26461;45.630;9.418;2024-02-15T20:09:08;11.10;75.80